createdAt,value
2022-09-21T00:14:53.550Z,50.99
2022-09-21T00:22:15.304Z,51.30
2022-09-21T00:28:54.070Z,51.34
2022-09-21T00:48:02.600Z,51.59
2022-09-21T00:57:21.182Z,51.81
2022-09-21T01:03:37.532Z,51.85
2022-09-21T01:06:18.069Z,51.67
2022-09-21T01:13:20.679Z,51.80
2022-09-21T01:19:19.885Z,52.24
2022-09-21T04:03:51.900Z,52.92
2022-09-21T07:00:37.142Z,54.64
2022-09-21T07:33:52.887Z,54.37
2022-09-21T07:37:13.461Z,54.54
2022-09-21T07:40:58.548Z,54.32
2022-09-21T07:59:56.680Z,54.06
2022-09-21T08:02:22.828Z,54.12
2022-09-21T08:04:50.786Z,54.34
2022-09-21T08:07:19.222Z,54.27
2022-09-21T08:09:49.353Z,54.27
2022-09-21T08:12:18.805Z,54.33
2022-09-21T08:14:46.928Z,54.14
2022-09-21T08:17:14.838Z,53.96
2022-09-21T08:19:43.028Z,54.03
2022-09-21T08:22:12.261Z,53.73
2022-09-21T08:24:44.463Z,53.99
2022-09-21T08:27:12.388Z,53.68
2022-09-21T08:29:41.917Z,53.76
2022-09-21T08:33:02.532Z,54.04
2022-09-21T08:35:42.657Z,53.71
2022-09-21T08:43:06.663Z,53.35
2022-09-21T08:45:37.446Z,53.19
2022-09-21T08:48:06.898Z,52.92
2022-09-21T08:50:36.268Z,53.06
2022-09-21T08:53:07.169Z,52.59
2022-09-21T08:55:35.169Z,52.90
2022-09-21T08:58:03.124Z,52.57
2022-09-21T09:00:33.539Z,52.51
2022-09-21T09:03:31.151Z,52.01
2022-09-21T09:06:00.984Z,52.17
2022-09-21T09:08:46.996Z,52.24
2022-09-21T09:11:21.045Z,51.88
2022-09-21T09:14:01.084Z,51.91
2022-09-21T09:16:33.014Z,51.77
2022-09-21T09:19:07.464Z,51.62
2022-09-21T09:21:36.620Z,51.60
2022-09-21T09:24:05.662Z,51.84
2022-09-21T09:26:36.056Z,51.78
2022-09-21T09:29:05.941Z,51.86
2022-09-21T09:31:34.846Z,51.74
2022-09-21T09:34:10.220Z,51.77
2022-09-21T09:36:57.162Z,51.42
2022-09-21T09:39:26.144Z,51.28
2022-09-21T09:42:01.963Z,51.23
2022-09-21T09:44:46.894Z,51.16
2022-09-21T09:47:21.200Z,51.08
2022-09-21T09:50:03.339Z,50.68
2022-09-21T09:52:31.570Z,50.58
2022-09-21T09:55:00.058Z,50.50
2022-09-21T09:57:29.633Z,50.74
2022-09-21T09:59:59.542Z,49.59
2022-09-21T10:02:28.134Z,48.61
2022-09-21T10:05:06.302Z,48.37
2022-09-21T10:07:38.591Z,47.87
2022-09-21T10:10:31.092Z,47.74
2022-09-21T10:13:05.416Z,47.14
2022-09-21T10:15:33.410Z,46.60
2022-09-21T10:18:03.878Z,46.29
2022-09-21T10:20:33.219Z,45.56
2022-09-21T10:23:01.158Z,45.14
2022-09-21T10:25:29.758Z,45.08
2022-09-21T10:27:57.804Z,44.67
2022-09-21T10:30:34.239Z,44.06
2022-09-21T10:33:02.196Z,43.82
2022-09-21T10:35:30.554Z,43.39
2022-09-21T10:38:22.168Z,43.44
2022-09-21T10:40:50.967Z,43.06
2022-09-21T10:43:27.222Z,42.87
2022-09-21T10:45:56.184Z,42.80
2022-09-21T10:48:24.800Z,42.50
2022-09-21T10:50:53.017Z,42.58
2022-09-21T10:53:24.860Z,42.69
2022-09-21T10:56:17.528Z,41.80
2022-09-21T10:59:13.744Z,41.60
2022-09-21T11:01:45.857Z,43.13
2022-09-21T11:04:15.717Z,43.19
2022-09-21T11:06:45.244Z,42.37
2022-09-21T11:09:16.288Z,42.43
2022-09-21T11:11:48.347Z,41.41
2022-09-21T11:14:21.327Z,40.07
2022-09-21T11:16:52.553Z,39.15
2022-09-21T11:19:25.523Z,37.80
2022-09-21T11:21:56.567Z,37.20
2022-09-21T11:24:32.049Z,35.88
2022-09-21T11:27:04.213Z,35.73
2022-09-21T11:29:35.323Z,36.83
2022-09-21T11:32:21.263Z,36.58
2022-09-21T11:35:07.133Z,36.69
2022-09-21T11:37:51.420Z,35.10
2022-09-21T11:40:30.725Z,35.22
2022-09-21T11:43:07.155Z,34.53
2022-09-21T11:45:48.430Z,33.95
2022-09-21T11:48:23.400Z,33.23
2022-09-21T11:50:57.635Z,33.16
2022-09-21T11:53:41.042Z,32.95
2022-09-21T11:56:29.687Z,32.33
2022-09-21T11:59:06.985Z,32.65
2022-09-21T12:01:45.473Z,31.71
2022-09-21T12:04:21.403Z,31.53
2022-09-21T12:06:56.451Z,31.18
2022-09-21T12:09:38.040Z,30.99
2022-09-21T12:12:10.057Z,31.10
2022-09-21T12:14:41.718Z,30.93
2022-09-21T12:17:13.133Z,30.84
2022-09-21T12:19:43.478Z,31.13
2022-09-21T12:22:14.433Z,30.90
2022-09-21T12:24:44.575Z,30.76
2022-09-21T12:27:20.467Z,30.42
2022-09-21T12:29:50.641Z,30.52
2022-09-21T12:32:35.200Z,30.20
2022-09-21T12:38:59.577Z,30.15
2022-09-21T12:41:32.142Z,29.93
2022-09-21T12:44:05.895Z,30.45
2022-09-21T12:46:36.386Z,30.02
2022-09-21T12:49:13.262Z,30.05
2022-09-21T12:51:43.278Z,29.58
2022-09-21T12:54:18.147Z,29.92
2022-09-21T12:56:50.178Z,30.04
2022-09-21T12:59:26.855Z,30.01
2022-09-21T13:02:00.303Z,29.94
2022-09-21T13:04:38.253Z,29.76
2022-09-21T13:07:32.801Z,29.65
2022-09-21T13:10:01.283Z,29.57
2022-09-21T13:12:30.590Z,29.37
2022-09-21T13:15:02.996Z,29.33
2022-09-21T13:17:33.132Z,29.32
2022-09-21T13:20:02.574Z,29.25
2022-09-21T13:22:33.443Z,30.32
2022-09-21T13:25:07.121Z,31.23
2022-09-21T13:28:09.256Z,32.66
2022-09-21T13:30:40.575Z,32.57
2022-09-21T13:33:30.932Z,32.72
2022-09-21T13:36:04.394Z,33.01
2022-09-21T13:38:34.440Z,33.29
2022-09-21T13:41:02.963Z,32.81
2022-09-21T13:44:05.856Z,33.65
2022-09-21T13:47:02.284Z,34.12
2022-09-21T13:49:41.126Z,34.03
2022-09-21T13:52:20.740Z,33.51
2022-09-21T13:54:50.549Z,33.85
2022-09-21T13:57:20.513Z,34.06
2022-09-21T13:59:50.589Z,34.96
2022-09-21T14:02:31.618Z,34.62
2022-09-21T14:05:04.756Z,35.49
2022-09-21T14:07:32.775Z,35.24
2022-09-21T14:10:01.908Z,35.26
2022-09-21T14:12:34.884Z,35.65
2022-09-21T14:15:32.344Z,35.47
2022-09-21T14:18:32.885Z,35.44
2022-09-21T14:21:18.411Z,34.64
2022-09-21T14:24:20.277Z,33.58
2022-09-21T14:26:55.258Z,33.58
2022-09-21T14:29:26.324Z,34.73
2022-09-21T14:31:55.883Z,35.99
2022-09-21T14:34:27.430Z,35.85
2022-09-21T14:36:57.537Z,34.83
2022-09-21T14:39:27.487Z,34.28
2022-09-21T14:41:56.891Z,33.72
2022-09-21T14:44:30.026Z,35.12
2022-09-21T14:47:11.340Z,35.37
2022-09-21T14:49:53.450Z,34.20
2022-09-21T14:52:32.329Z,33.40
2022-09-21T14:55:05.943Z,34.02
2022-09-21T14:57:51.620Z,34.18
2022-09-21T15:00:26.716Z,34.67
2022-09-21T15:03:19.132Z,34.99
2022-09-21T15:05:50.737Z,36.33
2022-09-21T15:08:52.328Z,37.81
2022-09-21T15:11:23.665Z,37.78
2022-09-21T15:14:14.152Z,36.46
2022-09-21T15:16:43.489Z,35.94
2022-09-21T15:19:23.600Z,35.08
2022-09-21T15:21:53.791Z,34.72
2022-09-21T15:24:25.997Z,34.62
2022-09-21T15:26:55.369Z,34.19
2022-09-21T15:29:27.331Z,34.09
2022-09-21T15:31:55.326Z,33.20
2022-09-21T15:34:23.333Z,32.75
2022-09-21T15:36:52.956Z,32.24
2022-09-21T15:39:26.480Z,32.02
2022-09-21T15:42:19.889Z,31.55
2022-09-21T15:44:50.662Z,30.80
2022-09-21T15:47:20.935Z,30.87
2022-09-21T15:49:51.751Z,31.19
2022-09-21T15:52:25.336Z,32.38
2022-09-21T15:54:55.170Z,32.86
2022-09-21T15:57:31.103Z,34.10
2022-09-21T15:59:59.080Z,34.62
2022-09-21T16:02:27.348Z,35.68
2022-09-21T16:04:55.318Z,36.08
2022-09-21T16:07:32.446Z,36.69
2022-09-21T16:10:00.921Z,37.15
2022-09-21T16:12:39.716Z,37.46
2022-09-21T16:15:14.319Z,37.35
2022-09-21T16:17:53.867Z,37.75
2022-09-21T16:20:23.518Z,38.27
2022-09-21T16:22:55.555Z,38.38
2022-09-21T16:25:30.007Z,38.57
2022-09-21T16:27:58.962Z,38.77
2022-09-21T16:30:47.269Z,38.70
2022-09-21T16:33:38.008Z,38.80
2022-09-21T16:36:06.639Z,38.82
2022-09-21T16:38:36.258Z,38.95
2022-09-21T16:41:04.300Z,38.94
2022-09-21T16:43:32.509Z,38.70
2022-09-21T16:46:02.208Z,38.63
2022-09-21T16:48:30.094Z,37.82
2022-09-21T16:50:58.064Z,37.72
2022-09-21T16:53:27.051Z,37.55
2022-09-21T16:55:56.571Z,37.68
2022-09-21T16:58:24.670Z,37.71
2022-09-21T17:00:56.313Z,37.89
2022-09-21T17:03:24.395Z,37.87
2022-09-21T17:05:52.343Z,38.21
2022-09-21T17:08:20.943Z,38.18
2022-09-21T17:10:48.953Z,38.23
2022-09-21T17:13:20.587Z,38.10
2022-09-21T17:15:48.905Z,38.17
2022-09-21T17:18:17.086Z,38.47
2022-09-21T17:20:45.853Z,38.61
2022-09-21T17:23:13.944Z,38.92
2022-09-21T17:25:41.943Z,39.23
2022-09-21T17:28:13.876Z,39.49
2022-09-21T17:30:45.541Z,39.63
2022-09-21T17:33:13.629Z,39.82
2022-09-21T17:35:42.188Z,39.84
2022-09-21T17:38:14.090Z,40.04
2022-09-21T17:40:42.725Z,40.12
2022-09-21T17:43:29.123Z,40.09
2022-09-21T17:46:01.555Z,40.63
2022-09-21T17:48:33.907Z,40.73
2022-09-21T17:51:02.977Z,40.94
2022-09-21T17:53:37.479Z,40.97
2022-09-21T17:56:15.537Z,41.16
2022-09-21T17:58:46.568Z,41.24
2022-09-21T18:01:24.662Z,41.49
2022-09-21T18:03:53.156Z,41.28
2022-09-21T18:06:21.793Z,41.71
2022-09-21T18:08:50.426Z,41.96
2022-09-21T18:11:49.125Z,42.26
2022-09-21T18:14:21.828Z,41.92
2022-09-21T18:16:55.098Z,42.30
2022-09-21T18:19:31.040Z,42.57
2022-09-21T18:22:04.402Z,42.62
2022-09-21T18:24:32.646Z,42.63
2022-09-21T18:27:01.802Z,42.65
2022-09-21T18:29:40.867Z,42.81
2022-09-21T18:32:39.616Z,43.12
2022-09-21T18:35:28.682Z,43.38
2022-09-21T18:38:06.054Z,43.49
2022-09-21T18:40:38.290Z,43.63
2022-09-21T18:43:13.845Z,43.34
2022-09-21T18:45:44.221Z,43.70
2022-09-21T18:48:22.763Z,43.61
2022-09-21T18:50:55.603Z,43.64
2022-09-21T18:53:28.589Z,43.88
2022-09-21T18:55:56.987Z,43.77
2022-09-21T18:58:25.361Z,43.92
2022-09-21T19:00:53.888Z,44.34
2022-09-21T19:03:24.072Z,44.40
2022-09-21T19:06:03.410Z,44.43
2022-09-21T19:08:37.590Z,44.43
2022-09-21T19:11:09.549Z,44.66
2022-09-21T19:13:43.112Z,44.64
2022-09-21T19:16:14.959Z,45.04
2022-09-21T19:18:48.922Z,44.90
2022-09-21T19:21:21.461Z,45.17
2022-09-21T19:23:56.575Z,45.51
2022-09-21T19:26:28.406Z,45.42
2022-09-21T19:29:15.869Z,45.62
2022-09-21T19:31:43.989Z,45.84
2022-09-21T19:34:15.658Z,45.84
2022-09-21T19:36:44.652Z,45.62
2022-09-21T19:39:13.219Z,45.72
2022-09-21T19:41:48.060Z,46.09
2022-09-21T19:44:32.535Z,46.22
2022-09-21T19:47:06.756Z,46.51
2022-09-21T19:49:40.628Z,46.20
2022-09-21T19:52:10.021Z,46.73
2022-09-21T19:54:55.558Z,46.50
2022-09-21T19:57:41.599Z,46.95
2022-09-21T20:00:12.605Z,46.80
2022-09-21T20:02:44.889Z,46.85
2022-09-21T20:05:15.740Z,47.00
2022-09-21T20:07:46.465Z,46.77
2022-09-21T20:10:26.745Z,47.18
2022-09-21T20:12:58.790Z,47.30
2022-09-21T20:15:29.471Z,47.02
2022-09-21T20:17:59.778Z,47.39
2022-09-21T20:20:30.097Z,47.19
2022-09-21T20:23:00.266Z,47.39
2022-09-21T20:25:31.652Z,47.67
2022-09-21T20:28:00.274Z,47.90
2022-09-21T20:30:31.523Z,47.70
2022-09-21T20:33:00.369Z,47.99
2022-09-21T20:35:30.666Z,48.08
2022-09-21T20:38:02.199Z,48.11
2022-09-21T20:40:31.206Z,47.96
2022-09-21T20:43:01.550Z,48.29
2022-09-21T20:45:29.611Z,47.95
2022-09-21T20:48:13.267Z,47.97
2022-09-21T20:50:43.180Z,48.58
2022-09-21T20:53:11.220Z,48.28
2022-09-21T20:55:39.491Z,48.64
2022-09-21T20:58:07.442Z,48.92
2022-09-21T21:00:35.590Z,48.79
2022-09-21T21:03:04.451Z,48.88
2022-09-21T21:05:32.856Z,48.71
2022-09-21T21:08:03.988Z,48.82
2022-09-21T21:10:32.229Z,49.01
2022-09-21T21:13:00.273Z,48.80
2022-09-21T21:15:28.519Z,48.91
2022-09-21T21:17:56.407Z,49.19
2022-09-21T21:20:24.344Z,49.17
2022-09-21T21:22:53.786Z,48.85
2022-09-21T21:25:23.210Z,49.09
2022-09-21T21:27:51.348Z,49.32
2022-09-21T21:30:19.415Z,49.17
2022-09-21T21:32:52.251Z,49.56
2022-09-21T21:35:20.979Z,49.51
2022-09-21T21:37:49.016Z,49.62
2022-09-21T21:40:17.129Z,49.46
2022-09-21T21:42:47.018Z,49.36
2022-09-21T21:45:15.120Z,49.91
2022-09-21T21:47:43.044Z,49.81
2022-09-21T21:50:11.260Z,49.97
2022-09-21T21:52:39.186Z,49.63
2022-09-21T21:55:07.897Z,49.74
2022-09-21T21:57:35.958Z,49.91
2022-09-21T22:00:06.207Z,49.88
2022-09-21T22:02:34.468Z,49.58
2022-09-21T22:05:02.459Z,50.02
2022-09-21T22:07:30.401Z,49.99
2022-09-21T22:09:58.275Z,49.88
2022-09-21T22:12:26.263Z,49.94
2022-09-21T22:14:54.234Z,50.00
2022-09-21T22:17:23.607Z,50.34
2022-09-21T22:19:51.504Z,49.99
2022-09-21T22:22:19.524Z,50.24
2022-09-21T22:24:48.097Z,49.95
2022-09-21T22:27:16.490Z,49.95
2022-09-21T22:29:45.075Z,50.18
2022-09-21T22:32:13.040Z,50.19
2022-09-21T22:34:42.568Z,49.91
2022-09-21T22:37:10.640Z,49.77
2022-09-21T22:39:38.492Z,50.03
2022-09-21T22:42:06.613Z,50.17
2022-09-21T22:44:34.534Z,50.28
2022-09-21T22:47:02.444Z,50.18
2022-09-21T22:49:30.360Z,50.46
2022-09-21T22:51:59.653Z,50.25
2022-09-21T22:54:27.757Z,50.26
2022-09-21T22:56:55.634Z,50.39
2022-09-21T22:59:23.607Z,50.17
2022-09-21T23:01:51.547Z,50.52
2022-09-21T23:04:20.096Z,50.31
2022-09-21T23:06:49.642Z,50.30
2022-09-21T23:09:20.498Z,50.52
2022-09-21T23:11:49.360Z,50.70
2022-09-21T23:14:17.653Z,50.50
2022-09-21T23:16:45.625Z,50.49
2022-09-21T23:19:16.371Z,50.96
2022-09-21T23:21:44.962Z,50.77
2022-09-21T23:24:13.112Z,51.02
2022-09-21T23:26:42.432Z,51.24
2022-09-21T23:29:12.940Z,51.23
2022-09-21T23:31:44.694Z,51.24
2022-09-21T23:34:13.400Z,51.10
2022-09-21T23:36:41.684Z,51.64
2022-09-21T23:39:11.448Z,51.55
2022-09-21T23:41:39.363Z,51.60
2022-09-21T23:44:08.798Z,51.36
2022-09-21T23:46:37.829Z,51.74
2022-09-21T23:49:05.848Z,51.64
2022-09-21T23:51:33.867Z,52.10
2022-09-21T23:54:01.872Z,51.71
2022-09-21T23:56:30.112Z,51.82
2022-09-21T23:58:58.741Z,51.93
